Time;durP1;ratioP1;P1;durP2;ratioP2;P2;SDS_P1;SDS_P2;PMS_P1;PMS_P2;Temp;Humidity;BMP_temperature;BMP_pressure;BME280_temperature;BME280_humidity;BME280_pressure;Samples;Min_cycle;Max_cycle;Signal;HPM_P1;HPM_P2
2023/11/12 00:00:09;;;;;;;2.50;1.30;;;6.40;99.90;;;;;;5018746;28;20453;-79
2023/11/12 00:02:35;;;;;;;7.35;1.52;;;6.30;99.90;;;;;;5020025;28;20060;-81
2023/11/12 00:05:02;;;;;;;9.60;1.75;;;6.30;99.90;;;;;;5019664;28;20473;-82
2023/11/12 00:07:29;;;;;;;5.05;2.10;;;6.30;99.90;;;;;;5018912;28;20077;-81
2023/11/12 00:09:56;;;;;;;5.75;1.90;;;6.20;99.90;;;;;;5019393;28;20045;-83
2023/11/12 00:12:23;;;;;;;11.43;2.28;;;6.20;99.90;;;;;;5018836;28;20060;-80
2023/11/12 00:14:50;;;;;;;5.68;2.10;;;6.20;99.90;;;;;;5015508;28;20050;-82
2023/11/12 00:17:17;;;;;;;3.13;1.88;;;6.20;99.90;;;;;;5019689;28;20087;-81
2023/11/12 00:19:44;;;;;;;4.65;1.80;;;6.10;99.90;;;;;;5037205;28;20069;-81
2023/11/12 00:22:12;;;;;;;4.57;2.40;;;6.10;99.90;;;;;;5021886;28;20133;-81
2023/11/12 00:24:39;;;;;;;10.27;2.30;;;6.10;99.90;;;;;;5020891;28;20133;-80
2023/11/12 00:27:06;;;;;;;6.18;2.10;;;6.10;99.90;;;;;;5019879;28;20054;-82
2023/11/12 00:29:33;;;;;;;5.88;1.60;;;6.00;99.90;;;;;;5020598;28;20489;-81
2023/11/12 00:32:01;;;;;;;2.97;1.75;;;6.00;99.90;;;;;;5019534;28;20048;-81
2023/11/12 00:34:27;;;;;;;4.60;2.15;;;6.00;99.90;;;;;;5020253;28;20073;-81
2023/11/12 00:36:54;;;;;;;3.80;1.67;;;5.90;99.90;;;;;;5019110;28;20077;-81
2023/11/12 00:39:21;;;;;;;5.05;1.90;;;5.90;99.90;;;;;;5025693;28;20049;-82
2023/11/12 00:41:48;;;;;;;6.15;2.83;;;5.90;99.90;;;;;;5033890;28;20103;-80
2023/11/12 00:44:15;;;;;;;9.10;2.70;;;5.90;99.90;;;;;;5019708;28;20073;-83
2023/11/12 00:46:42;;;;;;;8.27;2.50;;;5.90;99.90;;;;;;5018045;28;20048;-82
2023/11/12 00:49:09;;;;;;;8.60;2.03;;;5.80;99.90;;;;;;5016747;28;20117;-82
2023/11/12 00:51:36;;;;;;;4.43;1.63;;;5.80;99.90;;;;;;5017643;28;20054;-80
2023/11/12 00:54:03;;;;;;;4.60;1.65;;;5.80;99.90;;;;;;5018755;28;20045;-80
2023/11/12 00:56:30;;;;;;;9.23;3.80;;;5.80;99.90;;;;;;5019511;28;20391;-81
2023/11/12 00:58:57;;;;;;;17.05;2.47;;;5.70;99.90;;;;;;5019203;28;20089;-82
2023/11/12 01:01:23;;;;;;;7.43;1.70;;;5.70;99.90;;;;;;5019641;28;20049;-82
2023/11/12 01:03:50;;;;;;;4.55;1.20;;;5.70;99.90;;;;;;5019671;28;20053;-81
2023/11/12 01:06:17;;;;;;;3.90;1.35;;;5.70;99.90;;;;;;5019768;28;20421;-81
2023/11/12 01:08:45;;;;;;;5.95;1.95;;;5.70;99.90;;;;;;5019648;28;20049;-82
2023/11/12 01:11:13;;;;;;;4.80;2.08;;;5.60;99.90;;;;;;5019368;28;20052;-82
2023/11/12 01:13:40;;;;;;;6.95;1.50;;;5.60;99.90;;;;;;5017632;28;20048;-82
2023/11/12 01:16:08;;;;;;;4.25;1.77;;;5.60;99.90;;;;;;5019015;28;20050;-82
2023/11/12 01:18:38;;;;;;;7.90;1.80;;;5.60;99.90;;;;;;5015136;28;20109;-82
2023/11/12 01:21:05;;;;;;;6.10;1.73;;;5.60;99.90;;;;;;5012805;28;20133;-83
2023/11/12 01:23:32;;;;;;;4.38;1.55;;;5.50;99.90;;;;;;5016589;28;20053;-81
2023/11/12 01:25:59;;;;;;;8.10;2.08;;;5.50;99.90;;;;;;5019737;28;20050;-82
2023/11/12 01:28:29;;;;;;;5.20;1.80;;;5.50;99.90;;;;;;5019166;28;20489;-81
2023/11/12 01:30:56;;;;;;;7.65;1.50;;;5.50;99.90;;;;;;5013094;28;20058;-82
2023/11/12 01:33:23;;;;;;;5.85;1.65;;;5.60;99.90;;;;;;5018984;28;20129;-83
2023/11/12 01:35:51;;;;;;;7.78;1.48;;;5.60;99.90;;;;;;5018878;28;20042;-80
2023/11/12 01:38:18;;;;;;;3.00;1.30;;;5.60;99.90;;;;;;5019259;28;20402;-81
2023/11/12 01:40:45;;;;;;;6.65;1.50;;;5.60;99.90;;;;;;5018571;28;20045;-83
2023/11/12 01:43:12;;;;;;;4.35;1.10;;;5.70;99.90;;;;;;5018628;28;20057;-81
2023/11/12 01:45:39;;;;;;;6.15;1.50;;;5.70;99.90;;;;;;5034029;28;20497;-82
2023/11/12 01:48:08;;;;;;;3.80;1.33;;;5.70;99.90;;;;;;5018490;28;20050;-83
2023/11/12 01:50:36;;;;;;;10.20;1.65;;;5.80;99.90;;;;;;5019025;28;20109;-81
2023/11/12 01:53:03;;;;;;;6.60;1.70;;;5.80;99.90;;;;;;5018671;28;20042;-79
2023/11/12 01:55:32;;;;;;;7.88;2.15;;;5.80;99.90;;;;;;5019157;28;20096;-82
2023/11/12 01:58:01;;;;;;;5.72;1.17;;;5.80;99.90;;;;;;5019477;28;20060;-82
2023/11/12 02:00:28;;;;;;;5.13;1.45;;;5.80;99.90;;;;;;5034282;28;20049;-81
2023/11/12 02:02:55;;;;;;;7.50;1.45;;;5.90;99.90;;;;;;5016505;28;20070;-82
2023/11/12 02:05:23;;;;;;;4.90;1.23;;;5.80;99.90;;;;;;5019095;28;20061;-82
2023/11/12 02:07:50;;;;;;;4.78;1.42;;;5.80;99.90;;;;;;5018960;28;20141;-81
2023/11/12 02:10:16;;;;;;;3.17;1.35;;;5.90;99.90;;;;;;5019069;28;20089;-82
2023/11/12 02:12:45;;;;;;;3.00;1.10;;;5.90;99.90;;;;;;5018973;28;20049;-81
2023/11/12 02:15:16;;;;;;;7.72;1.30;;;5.90;99.90;;;;;;5016670;28;20045;-82
2023/11/12 02:17:44;;;;;;;3.65;1.30;;;6.00;99.90;;;;;;5017798;28;20050;-81
2023/11/12 02:20:14;;;;;;;5.63;1.20;;;6.00;99.90;;;;;;5018886;28;20085;-81
2023/11/12 02:22:41;;;;;;;7.05;1.50;;;6.00;99.90;;;;;;5019147;28;20484;-82
2023/11/12 02:25:08;;;;;;;4.63;1.20;;;6.00;99.90;;;;;;5019442;28;20049;-81
2023/11/12 02:27:35;;;;;;;2.78;1.10;;;6.00;99.90;;;;;;5019271;28;20046;-82
2023/11/12 02:30:03;;;;;;;3.92;1.02;;;6.10;99.90;;;;;;5019133;28;20398;-79
2023/11/12 02:32:32;;;;;;;8.85;1.38;;;6.10;99.90;;;;;;5007128;28;20042;-82
2023/11/12 02:35:00;;;;;;;4.85;1.23;;;6.10;99.90;;;;;;5018331;28;20234;-81
2023/11/12 02:37:27;;;;;;;2.65;1.30;;;6.10;99.90;;;;;;5033231;28;20058;-82
2023/11/12 02:39:53;;;;;;;6.88;1.63;;;6.10;99.90;;;;;;5015223;28;20069;-82
2023/11/12 02:42:22;;;;;;;8.18;1.60;;;6.10;99.90;;;;;;5017378;28;20050;-82
2023/11/12 02:44:49;;;;;;;6.40;1.75;;;6.20;99.90;;;;;;5016362;28;20045;-82
2023/11/12 02:47:17;;;;;;;4.05;1.42;;;6.20;99.90;;;;;;5017912;28;20082;-81
2023/11/12 02:49:55;;;;;;;6.40;1.70;;;6.10;99.90;;;;;;5017957;28;20173;-82
2023/11/12 02:52:22;;;;;;;10.35;1.45;;;6.10;99.90;;;;;;5015910;28;20077;-81
2023/11/12 02:54:49;;;;;;;6.15;1.70;;;6.10;99.90;;;;;;5017223;28;20120;-82
2023/11/12 02:57:15;;;;;;;4.78;1.30;;;6.10;99.90;;;;;;5018117;28;20050;-82
2023/11/12 02:59:42;;;;;;;3.95;1.52;;;6.10;99.90;;;;;;5018236;28;20046;-82
2023/11/12 03:02:12;;;;;;;7.07;1.55;;;6.10;99.90;;;;;;5018469;28;20046;-82
2023/11/12 03:04:39;;;;;;;5.93;1.75;;;6.10;99.90;;;;;;5014490;28;20053;-81
2023/11/12 03:07:07;;;;;;;5.30;1.77;;;6.10;99.90;;;;;;5018727;28;20124;-82
2023/11/12 03:09:33;;;;;;;4.05;1.80;;;6.10;99.90;;;;;;5018477;28;20134;-81
2023/11/12 03:12:03;;;;;;;4.53;1.42;;;6.10;99.90;;;;;;5016064;28;20046;-80
2023/11/12 03:14:31;;;;;;;6.30;1.55;;;6.10;99.90;;;;;;5020899;28;20077;-80
2023/11/12 03:16:57;;;;;;;4.32;1.55;;;6.10;99.90;;;;;;5015774;28;20514;-81
2023/11/12 03:19:25;;;;;;;8.15;1.73;;;6.10;99.90;;;;;;5015192;28;20092;-80
2023/11/12 03:21:55;;;;;;;8.02;1.52;;;6.10;99.90;;;;;;5015826;28;20080;-80
2023/11/12 03:24:22;;;;;;;;;;;6.10;99.90;;;;;;5016766;28;20052;-82
2023/11/12 03:26:52;;;;;;;5.40;2.00;;;6.10;99.90;;;;;;5016285;28;19941;-81
2023/11/12 03:29:19;;;;;;;4.03;1.73;;;6.10;99.90;;;;;;5015788;28;20046;-81
2023/11/12 03:31:48;;;;;;;2.53;1.67;;;6.10;99.90;;;;;;5016404;28;20082;-81
2023/11/12 03:34:15;;;;;;;4.63;1.60;;;6.10;99.90;;;;;;5015603;28;20081;-81
2023/11/12 03:36:42;;;;;;;8.35;1.40;;;6.10;99.90;;;;;;5016687;28;20050;-82
2023/11/12 03:39:09;;;;;;;3.63;1.40;;;6.00;99.90;;;;;;5016771;28;20136;-81
2023/11/12 03:41:36;;;;;;;2.33;1.30;;;6.00;99.90;;;;;;5017411;28;20058;-82
2023/11/12 03:44:03;;;;;;;6.82;2.00;;;6.00;99.90;;;;;;5030320;28;20417;-81
2023/11/12 03:46:30;;;;;;;9.48;2.05;;;5.90;99.90;;;;;;5016025;28;20490;-80
2023/11/12 03:48:57;;;;;;;6.93;1.65;;;5.90;99.90;;;;;;5017173;28;20045;-82
2023/11/12 03:51:24;;;;;;;4.25;2.10;;;5.90;99.90;;;;;;5013506;28;20069;-82
2023/11/12 03:53:51;;;;;;;6.30;2.00;;;5.90;99.90;;;;;;5017253;28;20085;-80
2023/11/12 03:56:18;;;;;;;6.07;3.95;;;6.00;99.90;;;;;;5017218;28;20406;-80
2023/11/12 03:58:45;;;;;;;6.35;2.90;;;6.00;99.90;;;;;;5015392;28;20077;-81
2023/11/12 04:01:12;;;;;;;3.25;2.40;;;5.90;99.90;;;;;;5010058;28;20050;-79
2023/11/12 04:03:39;;;;;;;7.25;3.15;;;5.90;99.90;;;;;;5016941;28;20061;-82
2023/11/12 04:06:06;;;;;;;8.05;3.60;;;6.00;99.90;;;;;;5017318;28;20540;-80
2023/11/12 04:08:32;;;;;;;7.22;3.88;;;6.00;99.90;;;;;;5015805;28;20071;-81
2023/11/12 04:10:59;;;;;;;8.48;3.85;;;5.90;99.90;;;;;;5033800;28;20496;-82
2023/11/12 04:13:26;;;;;;;5.47;3.75;;;5.90;99.90;;;;;;5018260;28;20046;-83
2023/11/12 04:15:53;;;;;;;6.75;4.35;;;6.00;99.90;;;;;;5020304;28;20054;-82
2023/11/12 04:18:20;;;;;;;8.85;5.55;;;6.00;99.90;;;;;;5021224;28;20469;-82
2023/11/12 04:20:46;;;;;;;6.35;4.32;;;6.00;99.90;;;;;;5021198;28;20100;-82
2023/11/12 04:23:13;;;;;;;6.78;4.30;;;6.00;99.90;;;;;;5018352;28;20057;-82
2023/11/12 04:25:41;;;;;;;10.85;5.63;;;6.00;99.90;;;;;;5021277;28;20046;-82
2023/11/12 04:28:08;;;;;;;10.27;5.35;;;6.00;99.90;;;;;;5020719;28;20082;-80
2023/11/12 04:30:34;;;;;;;10.48;5.53;;;6.00;99.90;;;;;;5021309;28;20085;-81
2023/11/12 04:33:01;;;;;;;10.00;5.50;;;6.00;99.90;;;;;;5014835;28;20494;-83
2023/11/12 04:35:29;;;;;;;11.77;6.10;;;6.00;99.90;;;;;;5020456;28;20054;-82
2023/11/12 04:37:55;;;;;;;11.60;6.75;;;6.00;99.90;;;;;;5021216;28;20398;-81
2023/11/12 04:40:22;;;;;;;12.23;6.18;;;5.90;99.90;;;;;;5020455;28;20107;-80
2023/11/12 04:42:50;;;;;;;9.82;6.53;;;5.80;99.90;;;;;;5020954;28;20049;-81
2023/11/12 04:45:19;;;;;;;9.32;6.03;;;5.80;99.90;;;;;;5020906;28;20076;-81
2023/11/12 04:47:46;;;;;;;9.45;6.45;;;5.80;99.90;;;;;;5020911;28;20496;-82
2023/11/12 04:50:14;;;;;;;11.13;6.70;;;5.80;99.90;;;;;;5020672;28;20520;-82
2023/11/12 04:52:41;;;;;;;10.82;7.13;;;5.80;99.90;;;;;;5020383;28;20042;-82
2023/11/12 04:55:08;;;;;;;10.40;6.68;;;5.80;99.90;;;;;;5012749;28;20502;-80
2023/11/12 04:57:35;;;;;;;10.50;6.70;;;5.80;99.90;;;;;;5027462;28;20080;-82
2023/11/12 05:00:02;;;;;;;12.52;6.85;;;5.80;99.90;;;;;;5018939;28;20057;-81
2023/11/12 05:02:29;;;;;;;11.60;6.57;;;5.80;99.90;;;;;;5020694;28;20045;-82
2023/11/12 05:04:56;;;;;;;14.52;6.82;;;5.80;99.90;;;;;;5028665;28;20054;-81
2023/11/12 05:07:23;;;;;;;9.98;6.72;;;5.80;99.90;;;;;;5034996;28;20050;-82
2023/11/12 05:09:50;;;;;;;11.80;6.55;;;5.80;99.90;;;;;;5021752;28;20042;-81
2023/11/12 05:12:17;;;;;;;13.07;7.38;;;5.80;99.90;;;;;;5021117;28;20049;-81
2023/11/12 05:14:43;;;;;;;12.10;6.82;;;5.80;99.90;;;;;;5017831;28;20049;-82
2023/11/12 05:17:10;;;;;;;13.52;7.10;;;5.80;99.90;;;;;;5020648;28;20046;-79
2023/11/12 05:19:37;;;;;;;10.98;6.82;;;5.70;99.90;;;;;;5020344;28;20049;-82
2023/11/12 05:22:04;;;;;;;10.68;7.28;;;5.70;99.90;;;;;;5020217;28;20069;-81
2023/11/12 05:24:30;;;;;;;9.40;6.65;;;5.70;99.90;;;;;;5019286;28;20046;-79
2023/11/12 05:26:57;;;;;;;12.90;6.68;;;5.70;99.90;;;;;;5020009;28;20050;-82
2023/11/12 05:29:24;;;;;;;8.07;5.57;;;5.80;99.90;;;;;;5020038;28;20046;-82
2023/11/12 05:31:50;;;;;;;11.27;6.88;;;5.80;99.90;;;;;;5027452;28;20560;-82
2023/11/12 05:34:17;;;;;;;4.53;2.88;;;5.80;99.90;;;;;;5018165;28;20049;-83
2023/11/12 05:36:44;;;;;;;5.55;3.97;;;5.80;99.90;;;;;;5023021;28;20394;-81
2023/11/12 05:39:12;;;;;;;5.18;2.47;;;5.80;99.90;;;;;;5017318;28;20042;-81
2023/11/12 05:41:39;;;;;;;5.32;1.75;;;5.90;99.90;;;;;;5032396;28;20060;-81
2023/11/12 05:44:06;;;;;;;3.50;1.05;;;5.90;99.90;;;;;;5016898;28;21136;-81
2023/11/12 05:46:33;;;;;;;2.05;1.20;;;6.00;99.90;;;;;;5018114;28;20108;-82
2023/11/12 05:48:59;;;;;;;3.45;1.10;;;6.00;99.90;;;;;;5018031;28;20104;-80
2023/11/12 05:51:26;;;;;;;4.13;0.95;;;6.10;99.90;;;;;;5011651;28;20465;-81
2023/11/12 05:53:53;;;;;;;2.40;1.08;;;6.20;99.90;;;;;;5014732;28;20053;-80
2023/11/12 05:56:20;;;;;;;1.30;1.20;;;6.20;99.90;;;;;;5017737;28;20096;-81
2023/11/12 05:58:46;;;;;;;2.15;1.10;;;6.40;99.90;;;;;;5015885;28;20099;-81
2023/11/12 06:01:13;;;;;;;1.45;0.85;;;6.40;99.90;;;;;;5010066;28;20053;-81
2023/11/12 06:03:40;;;;;;;1.98;1.00;;;6.50;99.90;;;;;;5019141;28;20046;-82
2023/11/12 06:06:07;;;;;;;2.55;1.25;;;6.50;99.90;;;;;;5018123;28;20050;-81
2023/11/12 06:08:33;;;;;;;5.65;1.25;;;6.50;99.90;;;;;;5020354;28;20107;-82
2023/11/12 06:11:00;;;;;;;3.60;1.00;;;6.60;99.90;;;;;;5020111;28;20042;-82
2023/11/12 06:13:27;;;;;;;1.80;1.10;;;6.60;99.90;;;;;;5018798;28;20074;-81
2023/11/12 06:15:53;;;;;;;2.72;1.00;;;6.70;99.90;;;;;;5019369;28;20413;-82
2023/11/12 06:18:20;;;;;;;3.38;1.20;;;6.70;99.90;;;;;;5019099;28;20531;-80
2023/11/12 06:20:48;;;;;;;4.78;0.98;;;6.70;99.90;;;;;;5018282;28;20535;-81
2023/11/12 06:23:15;;;;;;;1.30;1.00;;;6.70;99.90;;;;;;5016995;28;20052;-82
2023/11/12 06:25:42;;;;;;;1.55;1.00;;;6.70;99.90;;;;;;5018000;28;20486;-80
2023/11/12 06:28:09;;;;;;;3.55;1.20;;;6.80;99.90;;;;;;5018278;28;20103;-80
2023/11/12 06:30:35;;;;;;;1.50;0.90;;;6.80;99.90;;;;;;5018853;28;20133;-80
2023/11/12 06:33:02;;;;;;;2.75;0.93;;;6.80;99.90;;;;;;5018729;28;20407;-81
2023/11/12 06:35:29;;;;;;;2.42;1.00;;;6.90;99.90;;;;;;5014413;28;20087;-81
2023/11/12 06:37:56;;;;;;;1.45;0.88;;;6.90;99.90;;;;;;5017455;28;20505;-80
2023/11/12 06:40:23;;;;;;;1.88;1.10;;;6.90;99.90;;;;;;5033591;28;20054;-81
2023/11/12 06:42:49;;;;;;;3.45;1.17;;;6.90;99.90;;;;;;5018586;28;20292;-80
2023/11/12 06:45:19;;;;;;;2.65;1.27;;;6.90;99.90;;;;;;5014422;28;20049;-81
2023/11/12 06:47:45;;;;;;;4.00;1.00;;;7.00;99.90;;;;;;5018232;28;20049;-81
2023/11/12 06:50:12;;;;;;;2.22;1.27;;;7.00;99.90;;;;;;5018082;28;20052;-81
2023/11/12 06:52:39;;;;;;;3.00;1.20;;;7.00;99.90;;;;;;5017345;28;20498;-81
2023/11/12 06:55:07;;;;;;;1.52;1.08;;;7.00;99.90;;;;;;5018049;28;20041;-79
2023/11/12 06:57:33;;;;;;;3.00;1.60;;;7.00;99.90;;;;;;5016413;28;20042;-82
2023/11/12 07:00:00;;;;;;;6.35;2.60;;;7.10;99.90;;;;;;5017332;28;20497;-82
2023/11/12 07:02:27;;;;;;;4.10;2.25;;;7.10;99.90;;;;;;5017384;28;20054;-81
2023/11/12 07:04:55;;;;;;;5.05;2.20;;;7.10;99.90;;;;;;5017927;28;20100;-79
2023/11/12 07:07:21;;;;;;;4.88;2.53;;;7.10;99.90;;;;;;5018824;28;20053;-81
2023/11/12 07:09:49;;;;;;;6.03;2.50;;;7.10;99.90;;;;;;5018207;28;20046;-81
2023/11/12 07:12:15;;;;;;;6.30;3.00;;;7.10;99.90;;;;;;5018558;28;20096;-81
2023/11/12 07:14:42;;;;;;;3.75;2.10;;;7.10;99.90;;;;;;5018030;28;20046;-81
2023/11/12 07:17:09;;;;;;;6.05;3.10;;;7.10;99.90;;;;;;5016901;28;20108;-81
2023/11/12 07:19:36;;;;;;;9.13;3.63;;;7.10;99.90;;;;;;5017271;28;20464;-80
2023/11/12 07:22:04;;;;;;;5.18;2.50;;;7.10;99.90;;;;;;5016460;28;20330;-80
2023/11/12 07:24:35;;;;;;;2.33;1.70;;;7.20;99.90;;;;;;5017180;28;20488;-80
2023/11/12 07:27:02;;;;;;;4.32;1.42;;;7.20;99.90;;;;;;5016835;28;20049;-82
2023/11/12 07:29:29;;;;;;;1.05;0.98;;;7.20;99.90;;;;;;5016806;28;20049;-81
2023/11/12 07:31:56;;;;;;;1.02;1.00;;;7.20;99.90;;;;;;5016713;28;20045;-79
2023/11/12 07:34:23;;;;;;;2.05;1.10;;;7.20;99.90;;;;;;5016136;28;20113;-82
2023/11/12 07:36:49;;;;;;;2.92;1.55;;;7.20;99.90;;;;;;5016362;28;20521;-80
2023/11/12 07:39:16;;;;;;;3.45;1.83;;;7.20;99.90;;;;;;5016410;28;20133;-82
2023/11/12 07:41:43;;;;;;;5.13;3.30;;;7.20;99.90;;;;;;5015985;28;20133;-82
2023/11/12 07:44:10;;;;;;;2.50;1.70;;;7.20;99.90;;;;;;5016638;28;20180;-80
2023/11/12 07:46:40;;;;;;;2.78;1.80;;;7.20;99.90;;;;;;5016040;28;20445;-82
2023/11/12 07:49:08;;;;;;;1.77;1.20;;;7.20;99.90;;;;;;5016417;28;20497;-81
2023/11/12 07:51:34;;;;;;;6.18;2.00;;;7.20;99.90;;;;;;5019333;28;20041;-82
2023/11/12 07:54:01;;;;;;;2.15;1.50;;;7.20;99.90;;;;;;5018496;28;20490;-81
2023/11/12 07:56:28;;;;;;;6.55;3.15;;;7.20;99.90;;;;;;5017875;28;20064;-82
2023/11/12 07:59:05;;;;;;;1.00;0.90;;;7.30;99.90;;;;;;5018290;28;20540;-81
2023/11/12 08:01:31;;;;;;;1.70;0.75;;;7.30;99.90;;;;;;5018237;28;20072;-81
2023/11/12 08:03:58;;;;;;;1.67;0.77;;;7.30;99.90;;;;;;5011602;28;20073;-81
2023/11/12 08:06:26;;;;;;;2.45;0.80;;;7.30;99.90;;;;;;5018487;28;20050;-81
2023/11/12 08:08:54;;;;;;;1.85;0.98;;;7.30;99.90;;;;;;5020840;28;20125;-82
2023/11/12 08:11:21;;;;;;;3.75;1.15;;;7.30;99.90;;;;;;5017438;28;20489;-82
2023/11/12 08:13:49;;;;;;;1.13;0.80;;;7.30;99.90;;;;;;5020081;28;20073;-81
2023/11/12 08:16:16;;;;;;;2.55;1.63;;;7.40;99.90;;;;;;5019006;28;20054;-82
2023/11/12 08:18:43;;;;;;;2.72;1.00;;;7.30;99.90;;;;;;5018888;28;20069;-82
2023/11/12 08:21:10;;;;;;;1.65;1.30;;;7.40;99.90;;;;;;5025285;28;20069;-80
2023/11/12 08:23:36;;;;;;;1.92;1.25;;;7.40;99.90;;;;;;5014826;28;20078;-81
2023/11/12 08:26:04;;;;;;;2.75;1.70;;;7.40;99.90;;;;;;5018132;28;20133;-82
2023/11/12 08:28:32;;;;;;;4.68;2.22;;;7.40;99.90;;;;;;5017766;28;20066;-79
2023/11/12 08:30:58;;;;;;;7.82;3.35;;;7.50;99.90;;;;;;5017004;28;20094;-82
2023/11/12 08:33:25;;;;;;;7.47;3.55;;;7.50;99.90;;;;;;5017178;28;20104;-81
2023/11/12 08:35:52;;;;;;;4.22;2.58;;;7.50;99.90;;;;;;5018076;28;20045;-82
2023/11/12 08:38:19;;;;;;;4.90;2.50;;;7.50;99.90;;;;;;5016968;28;20524;-80
2023/11/12 08:40:46;;;;;;;4.22;1.98;;;7.50;99.90;;;;;;5011683;28;20060;-80
2023/11/12 08:43:14;;;;;;;5.32;2.67;;;7.50;99.90;;;;;;5016920;28;20060;-81
2023/11/12 08:45:41;;;;;;;7.10;2.60;;;7.60;99.90;;;;;;5017317;28;20073;-82
2023/11/12 08:48:08;;;;;;;7.60;2.92;;;7.60;99.90;;;;;;5017175;28;20269;-81
2023/11/12 08:50:35;;;;;;;4.80;2.97;;;7.60;99.90;;;;;;5016398;28;20068;-81
2023/11/12 08:53:02;;;;;;;3.25;2.08;;;7.60;99.90;;;;;;5019754;28;20038;-81
2023/11/12 08:55:29;;;;;;;3.22;2.17;;;7.60;99.90;;;;;;5016283;28;20065;-82
2023/11/12 08:57:56;;;;;;;3.25;1.77;;;7.70;99.90;;;;;;5031567;28;20045;-82
2023/11/12 09:00:23;;;;;;;2.15;1.67;;;7.70;99.90;;;;;;5016765;28;20048;-82
2023/11/12 09:02:50;;;;;;;2.22;1.80;;;7.60;99.90;;;;;;5018006;28;20052;-80
2023/11/12 09:05:18;;;;;;;2.33;1.67;;;7.70;99.90;;;;;;5018779;28;20054;-82
2023/11/12 09:07:45;;;;;;;3.45;1.63;;;7.70;99.90;;;;;;5019322;28;20476;-81
2023/11/12 09:10:12;;;;;;;2.33;1.60;;;7.80;99.90;;;;;;5019213;28;20046;-81
2023/11/12 09:12:39;;;;;;;3.10;1.63;;;7.80;99.90;;;;;;5019450;28;20311;-81
2023/11/12 09:15:06;;;;;;;4.55;2.40;;;7.80;99.90;;;;;;5015287;28;20042;-81
2023/11/12 09:17:33;;;;;;;7.43;3.80;;;7.80;99.90;;;;;;5017949;28;20119;-82
2023/11/12 09:19:59;;;;;;;8.15;4.55;;;7.90;99.90;;;;;;5032797;28;20080;-81
2023/11/12 09:22:27;;;;;;;3.00;2.38;;;7.90;99.90;;;;;;5017606;28;20096;-82
2023/11/12 09:24:53;;;;;;;2.38;2.17;;;7.90;99.90;;;;;;5017048;28;20426;-82
2023/11/12 09:27:36;;;;;;;4.60;3.00;;;7.80;99.90;;;;;;5016723;28;20109;-81
2023/11/12 09:30:04;;;;;;;4.60;3.17;;;7.80;99.90;;;;;;5016405;28;20053;-82
2023/11/12 09:32:31;;;;;;;2.38;1.77;;;7.80;99.90;;;;;;5012345;28;20133;-79
2023/11/12 09:34:58;;;;;;;1.48;1.38;;;7.90;99.90;;;;;;5016187;28;20042;-79
2023/11/12 09:37:25;;;;;;;2.17;1.58;;;7.80;99.90;;;;;;5011050;28;20548;-81
2023/11/12 09:39:53;;;;;;;3.35;1.13;;;7.80;99.90;;;;;;5016318;28;20048;-82
2023/11/12 09:42:24;;;;;;;1.75;1.27;;;7.80;99.90;;;;;;5016108;28;20128;-82
2023/11/12 09:44:54;;;;;;;1.70;1.60;;;7.80;99.90;;;;;;5014626;28;20525;-82
2023/11/12 09:47:34;;;;;;;2.90;1.47;;;7.90;99.90;;;;;;5016589;28;20049;-82
2023/11/12 09:50:06;;;;;;;2.28;1.60;;;7.80;99.90;;;;;;5016846;28;20330;-82
2023/11/12 09:52:33;;;;;;;0.65;0.60;;;7.80;99.90;;;;;;5009791;28;20041;-79
2023/11/12 09:55:01;;;;;;;1.10;1.00;;;7.80;99.90;;;;;;5014832;28;20460;-81
2023/11/12 09:57:29;;;;;;;4.43;1.55;;;7.80;99.90;;;;;;5015463;28;20041;-79
2023/11/12 09:59:56;;;;;;;1.55;1.20;;;7.80;99.90;;;;;;5009623;28;20100;-81
2023/11/12 10:02:24;;;;;;;2.20;1.98;;;7.70;99.90;;;;;;5031805;28;20055;-82
2023/11/12 10:04:59;;;;;;;2.83;1.10;;;7.80;99.90;;;;;;5014944;28;20058;-81
2023/11/12 10:07:26;;;;;;;1.50;0.80;;;7.70;99.90;;;;;;5014696;28;20506;-80
2023/11/12 10:09:55;;;;;;;0.98;0.93;;;7.70;99.90;;;;;;5014597;28;20046;-81
2023/11/12 10:12:22;;;;;;;0.65;0.65;;;7.70;99.90;;;;;;5014184;28;20453;-81
2023/11/12 10:15:09;;;;;;;3.22;0.77;;;7.70;99.90;;;;;;5013954;28;20049;-81
2023/11/12 10:17:47;;;;;;;2.42;1.10;;;7.80;99.90;;;;;;5014491;28;20532;-80
2023/11/12 10:20:20;;;;;;;1.10;1.00;;;7.80;99.90;;;;;;5014325;28;20050;-82
2023/11/12 10:22:48;;;;;;;1.95;0.80;;;7.90;99.90;;;;;;5013708;28;20041;-82
2023/11/12 10:25:34;;;;;;;1.33;1.23;;;7.90;99.90;;;;;;5011208;28;20652;-80
2023/11/12 10:28:02;;;;;;;1.95;1.08;;;8.00;99.90;;;;;;5013006;28;20051;-81
2023/11/12 10:30:28;;;;;;;1.42;1.30;;;8.00;99.90;;;;;;5013052;28;20100;-81
2023/11/12 10:33:18;;;;;;;2.35;1.30;;;8.00;99.90;;;;;;5012996;28;20116;-81
2023/11/12 10:35:46;;;;;;;3.15;2.83;;;8.00;99.90;;;;;;5013316;28;20046;-82
2023/11/12 10:38:17;;;;;;;5.05;2.20;;;8.00;99.90;;;;;;5014206;28;20048;-81
2023/11/12 10:40:58;;;;;;;5.10;2.63;;;8.00;99.90;;;;;;5009424;28;20046;-81
2023/11/12 10:43:25;;;;;;;1.80;1.27;;;7.90;99.90;;;;;;5012982;28;20050;-82
2023/11/12 10:46:03;;;;;;;2.72;1.55;;;7.90;99.90;;;;;;5013361;28;20104;-80
2023/11/12 10:48:33;;;;;;;2.33;1.33;;;7.90;99.90;;;;;;5014229;28;20053;-81
2023/11/12 10:51:03;;;;;;;1.42;1.15;;;7.90;99.90;;;;;;5015004;28;20084;-82
2023/11/12 10:53:31;;;;;;;2.90;0.90;;;7.90;99.90;;;;;;5015397;28;20054;-82
2023/11/12 10:55:59;;;;;;;2.25;1.23;;;7.90;99.90;;;;;;5015062;28;20053;-79
2023/11/12 10:58:30;;;;;;;1.23;1.00;;;7.80;99.90;;;;;;5023737;28;20128;-81
2023/11/12 11:00:58;;;;;;;2.60;1.30;;;7.80;99.90;;;;;;5018969;28;20045;-82
2023/11/12 11:03:30;;;;;;;2.28;1.50;;;7.80;99.90;;;;;;5016767;28;20136;-82
2023/11/12 11:06:01;;;;;;;2.20;1.70;;;7.70;99.90;;;;;;5015768;28;20056;-81
2023/11/12 11:08:30;;;;;;;2.15;1.52;;;7.70;99.90;;;;;;5017394;28;20050;-81
2023/11/12 11:10:59;;;;;;;2.78;1.70;;;7.60;99.90;;;;;;5018132;28;20325;-82
2023/11/12 11:13:26;;;;;;;2.78;1.80;;;7.60;99.90;;;;;;5015414;28;20076;-82
2023/11/12 11:15:55;;;;;;;4.18;1.50;;;7.50;99.90;;;;;;5016627;28;20132;-83
2023/11/12 11:18:34;;;;;;;2.72;1.77;;;7.50;99.90;;;;;;5017319;28;20057;-79
2023/11/12 11:21:12;;;;;;;2.03;1.50;;;7.50;99.90;;;;;;5016925;28;20049;-82
2023/11/12 11:23:47;;;;;;;6.03;1.95;;;7.50;99.90;;;;;;5017034;28;20478;-81
2023/11/12 11:26:39;;;;;;;4.65;2.03;;;7.50;99.90;;;;;;5036711;28;20073;-82
2023/11/12 11:29:10;;;;;;;2.40;1.90;;;7.50;99.90;;;;;;5025574;28;20065;-81
2023/11/12 11:31:38;;;;;;;3.58;2.22;;;7.50;99.90;;;;;;5024097;28;20068;-81
2023/11/12 11:34:10;;;;;;;4.32;3.45;;;7.40;99.90;;;;;;5024442;28;20073;-82
2023/11/12 11:36:42;;;;;;;2.30;2.10;;;7.40;99.90;;;;;;5024311;28;20069;-80
2023/11/12 11:39:15;;;;;;;3.50;1.85;;;7.30;99.90;;;;;;5019913;28;20042;-80
2023/11/12 11:41:48;;;;;;;3.00;2.28;;;7.40;99.90;;;;;;5035961;28;20790;-81
2023/11/12 11:44:37;;;;;;;7.25;2.80;;;7.40;99.90;;;;;;5023936;28;20077;-82
2023/11/12 11:47:14;;;;;;;3.58;2.20;;;7.30;99.90;;;;;;5023946;28;20042;-81
2023/11/12 11:49:43;;;;;;;3.77;2.33;;;7.30;99.90;;;;;;5022676;28;20054;-82
2023/11/12 11:52:24;;;;;;;3.70;2.50;;;7.30;99.90;;;;;;5023634;28;20057;-81
2023/11/12 11:55:23;;;;;;;3.63;2.72;;;7.30;99.90;;;;;;5018239;28;20100;-80
2023/11/12 11:57:53;;;;;;;4.63;2.60;;;7.30;99.90;;;;;;5019154;28;20417;-82
2023/11/12 12:00:20;;;;;;;4.23;3.17;;;7.40;99.90;;;;;;5024764;28;20490;-81
2023/11/12 12:02:46;;;;;;;3.53;3.13;;;7.40;99.90;;;;;;5022588;28;20292;-82
2023/11/12 12:05:25;;;;;;;4.43;3.42;;;7.40;99.90;;;;;;5024268;28;20045;-81
2023/11/12 12:08:00;;;;;;;4.72;3.40;;;7.40;99.90;;;;;;5030979;28;20505;-82
2023/11/12 12:10:28;;;;;;;5.90;3.38;;;7.50;99.90;;;;;;5021485;28;20049;-81
2023/11/12 12:12:55;;;;;;;5.95;3.63;;;7.40;99.90;;;;;;5023186;28;20057;-81
2023/11/12 12:15:22;;;;;;;4.07;2.45;;;7.40;99.90;;;;;;5022979;28;20168;-82
2023/11/12 12:17:49;;;;;;;7.40;3.58;;;7.40;99.90;;;;;;5023153;28;20038;-80
2023/11/12 12:20:15;;;;;;;3.58;2.88;;;7.40;99.90;;;;;;5023851;28;20053;-81
2023/11/12 12:22:43;;;;;;;4.63;2.88;;;7.40;99.90;;;;;;5018280;28;20046;-81
2023/11/12 12:25:10;;;;;;;7.47;3.15;;;7.40;99.90;;;;;;5022732;28;20069;-80
2023/11/12 12:27:37;;;;;;;4.68;3.40;;;7.40;99.90;;;;;;5031458;28;20105;-80
2023/11/12 12:30:07;;;;;;;4.57;3.35;;;7.40;99.90;;;;;;5021724;28;20061;-81
2023/11/12 12:32:39;;;;;;;6.68;3.28;;;7.40;99.90;;;;;;5021409;28;20053;-81
2023/11/12 12:35:06;;;;;;;3.85;2.83;;;7.40;99.90;;;;;;5020634;28;20046;-81
2023/11/12 12:37:35;;;;;;;5.03;3.58;;;7.50;99.90;;;;;;5019726;28;20046;-81
2023/11/12 12:40:16;;;;;;;4.38;2.85;;;7.50;99.90;;;;;;5020091;28;20048;-82
2023/11/12 12:42:43;;;;;;;4.22;3.38;;;7.50;99.90;;;;;;5015396;28;20073;-81
2023/11/12 12:45:15;;;;;;;8.73;5.07;;;7.40;99.90;;;;;;5019738;28;20045;-81
2023/11/12 12:47:43;;;;;;;9.23;5.47;;;7.50;99.90;;;;;;5018048;28;20485;-82
2023/11/12 12:50:21;;;;;;;9.40;5.10;;;7.50;99.90;;;;;;5017322;28;20046;-81
2023/11/12 12:52:51;;;;;;;6.85;4.07;;;7.60;99.90;;;;;;5018714;28;20056;-81
2023/11/12 12:55:20;;;;;;;6.22;4.95;;;7.60;99.90;;;;;;5020026;28;20089;-81
2023/11/12 12:57:49;;;;;;;5.55;4.38;;;7.60;99.90;;;;;;5036220;28;20038;-82
2023/11/12 13:00:18;;;;;;;7.78;4.97;;;7.70;99.90;;;;;;5035706;28;20057;-82